createdAt,value
2022-12-15T00:02:20.689Z,13.23
2022-12-15T00:05:27.167Z,11.98
2022-12-15T00:08:33.281Z,11.85
2022-12-15T00:11:39.457Z,13.30
2022-12-15T00:14:45.733Z,15.52
2022-12-15T00:17:51.810Z,13.07
2022-12-15T00:20:59.057Z,12.63
2022-12-15T00:24:05.116Z,12.40
2022-12-15T00:27:11.184Z,12.90
2022-12-15T00:30:17.032Z,11.25
2022-12-15T00:33:30.581Z,11.00
2022-12-15T00:36:36.803Z,12.55
2022-12-15T00:39:24.555Z,12.05
2022-12-15T00:42:12.272Z,12.93
2022-12-15T00:44:59.941Z,14.20
2022-12-15T00:47:47.579Z,12.75
2022-12-15T00:50:53.117Z,12.65
2022-12-15T00:53:59.695Z,10.77
2022-12-15T00:57:06.021Z,11.70
2022-12-15T01:00:12.214Z,11.82
2022-12-15T01:03:18.443Z,12.18
2022-12-15T01:06:31.144Z,12.68
2022-12-15T01:09:37.066Z,10.98
2022-12-15T01:12:43.126Z,12.00
2022-12-15T01:15:51.123Z,11.52
2022-12-15T01:18:57.167Z,10.15
2022-12-15T01:21:44.987Z,12.00
2022-12-15T01:24:32.879Z,13.23
2022-12-15T01:27:20.568Z,10.68
2022-12-15T01:30:11.092Z,10.85
2022-12-15T01:32:58.792Z,10.70
2022-12-15T01:35:55.984Z,11.80
2022-12-15T01:38:49.345Z,10.63
2022-12-15T01:41:40.021Z,10.90
2022-12-15T01:44:27.762Z,10.73
2022-12-15T01:47:16.172Z,10.25
2022-12-15T01:50:04.372Z,11.57
2022-12-15T01:52:54.445Z,12.10
2022-12-15T01:55:44.582Z,11.77
2022-12-15T01:58:37.012Z,11.02
2022-12-15T02:01:24.959Z,11.25
2022-12-15T02:04:13.053Z,10.30
2022-12-15T02:07:00.744Z,11.82
2022-12-15T02:09:53.757Z,9.82
2022-12-15T02:13:04.569Z,12.52
2022-12-15T02:16:11.236Z,11.93
2022-12-15T02:19:29.893Z,11.20
2022-12-15T02:23:14.405Z,10.77
2022-12-15T02:26:26.213Z,11.27
2022-12-15T02:29:39.695Z,14.02
2022-12-15T02:32:34.148Z,14.20
2022-12-15T02:35:31.047Z,13.93
2022-12-15T02:38:34.072Z,13.45
2022-12-15T02:41:36.142Z,13.45
2022-12-15T02:44:26.416Z,16.42
2022-12-15T02:47:35.211Z,15.63
2022-12-15T02:51:04.782Z,14.43
2022-12-15T02:54:20.035Z,16.15
2022-12-15T02:57:34.668Z,18.20
2022-12-15T03:00:23.174Z,20.02
2022-12-15T03:03:14.092Z,18.98
2022-12-15T03:06:03.512Z,19.23
2022-12-15T03:08:51.378Z,22.15
2022-12-15T03:11:39.177Z,22.02
2022-12-15T03:14:27.368Z,19.90
2022-12-15T03:17:17.428Z,21.20
2022-12-15T03:20:05.962Z,20.20
2022-12-15T03:22:54.156Z,18.80
2022-12-15T03:25:49.950Z,18.08
2022-12-15T03:28:37.871Z,18.23
2022-12-15T03:31:26.372Z,17.17
2022-12-15T03:34:14.088Z,15.05
2022-12-15T03:37:01.855Z,17.25
2022-12-15T03:39:49.982Z,14.63
2022-12-15T03:42:49.787Z,15.13
2022-12-15T03:45:37.547Z,14.57
2022-12-15T03:48:25.156Z,14.23
2022-12-15T03:51:12.990Z,13.43
2022-12-15T03:54:00.658Z,13.90
2022-12-15T03:56:48.495Z,13.55
2022-12-15T03:59:36.134Z,12.90
2022-12-15T04:02:23.991Z,13.35
2022-12-15T04:05:32.695Z,13.85
2022-12-15T04:08:26.928Z,12.38
2022-12-15T04:11:14.737Z,11.90
2022-12-15T04:14:02.783Z,12.43
2022-12-15T04:16:50.520Z,12.93
2022-12-15T04:19:57.319Z,13.07
2022-12-15T04:22:47.242Z,11.00
2022-12-15T04:25:54.675Z,12.10
2022-12-15T04:29:00.641Z,11.80
2022-12-15T04:32:07.021Z,13.43
2022-12-15T04:35:13.231Z,11.27
2022-12-15T04:38:20.635Z,9.95
2022-12-15T04:41:27.214Z,10.63
2022-12-15T04:44:33.647Z,12.88
2022-12-15T04:47:40.206Z,15.18
2022-12-15T04:50:48.464Z,13.68
2022-12-15T04:54:14.239Z,13.23
2022-12-15T04:57:20.744Z,14.07
2022-12-15T05:00:30.551Z,12.98
2022-12-15T05:03:39.543Z,13.05
2022-12-15T05:06:46.318Z,11.15
2022-12-15T05:09:52.789Z,12.60
2022-12-15T05:12:58.695Z,13.13
2022-12-15T05:16:04.966Z,11.57
2022-12-15T05:19:11.589Z,10.30
2022-12-15T05:22:17.988Z,11.65
2022-12-15T05:25:24.438Z,13.10
2022-12-15T05:28:30.727Z,10.45
2022-12-15T05:31:36.938Z,12.10
2022-12-15T05:34:27.380Z,11.02
2022-12-15T05:37:15.363Z,11.07
2022-12-15T05:40:03.032Z,10.40
2022-12-15T05:42:35.746Z,10.48
2022-12-15T05:45:23.445Z,10.02
2022-12-15T05:48:11.189Z,11.63
2022-12-15T05:51:07.741Z,12.65
2022-12-15T05:53:55.568Z,10.55
2022-12-15T05:56:43.327Z,10.43
2022-12-15T05:59:31.034Z,10.48
2022-12-15T06:02:18.797Z,9.77
2022-12-15T06:05:07.169Z,10.13
2022-12-15T06:07:54.932Z,9.10
2022-12-15T06:10:42.685Z,9.65
2022-12-15T06:13:32.061Z,10.65
2022-12-15T06:16:21.331Z,10.07
2022-12-15T06:19:11.692Z,8.88
2022-12-15T06:22:01.114Z,8.60
2022-12-15T06:24:48.780Z,8.75
2022-12-15T06:27:38.096Z,9.40
2022-12-15T06:30:26.056Z,8.52
2022-12-15T06:33:14.046Z,8.63
2022-12-15T06:36:07.742Z,8.80
2022-12-15T06:38:58.448Z,7.88
2022-12-15T06:41:47.007Z,8.00
2022-12-15T06:44:34.666Z,9.57
2022-12-15T06:47:22.470Z,8.75
2022-12-15T06:50:10.289Z,9.88
2022-12-15T06:52:59.451Z,10.10
2022-12-15T06:55:48.366Z,11.00
2022-12-15T06:58:36.190Z,10.30
2022-12-15T07:01:24.999Z,9.38
2022-12-15T07:04:12.978Z,13.07
2022-12-15T07:07:02.069Z,12.15
2022-12-15T07:09:49.728Z,8.80
2022-12-15T07:12:37.447Z,7.38
2022-12-15T07:15:25.794Z,6.80
2022-12-15T07:18:13.553Z,6.38
2022-12-15T07:21:06.689Z,5.47
2022-12-15T07:23:56.226Z,4.90
2022-12-15T07:26:46.615Z,4.95
2022-12-15T07:29:37.663Z,3.85
2022-12-15T07:32:25.434Z,3.40
2022-12-15T07:35:13.398Z,3.92
2022-12-15T07:38:01.105Z,4.40
2022-12-15T07:40:49.439Z,4.20
2022-12-15T07:43:37.970Z,5.40
2022-12-15T07:46:26.688Z,4.43
2022-12-15T07:49:14.402Z,4.05
2022-12-15T07:52:02.089Z,3.80
2022-12-15T07:54:53.857Z,4.90
2022-12-15T07:57:42.617Z,5.80
2022-12-15T08:00:34.022Z,5.03
2022-12-15T08:03:22.353Z,4.57
2022-12-15T08:06:15.074Z,4.30
2022-12-15T08:09:05.601Z,5.13
2022-12-15T08:11:59.502Z,4.35
2022-12-15T08:14:52.761Z,5.05
2022-12-15T08:17:46.777Z,5.00
2022-12-15T08:20:39.996Z,4.72
2022-12-15T08:23:29.397Z,3.92
2022-12-15T08:26:26.593Z,4.85
2022-12-15T08:32:28.939Z,2.28
2022-12-15T08:35:46.771Z,2.25
2022-12-15T08:38:24.252Z,2.55
2022-12-15T08:41:24.409Z,2.22
2022-12-15T08:44:12.185Z,2.80
2022-12-15T08:46:59.948Z,2.63
2022-12-15T08:49:53.607Z,2.88
2022-12-15T08:53:00.654Z,2.47
2022-12-15T08:55:50.668Z,4.65
2022-12-15T08:58:38.829Z,4.55
2022-12-15T09:01:28.699Z,4.82
2022-12-15T09:04:17.869Z,5.13
2022-12-15T09:07:05.624Z,3.65
2022-12-15T09:09:59.008Z,3.20
2022-12-15T09:12:50.900Z,3.63
2022-12-15T09:16:07.752Z,4.75
2022-12-15T09:18:51.971Z,3.63
2022-12-15T09:21:40.563Z,3.67
2022-12-15T09:24:34.836Z,2.03
2022-12-15T09:27:23.693Z,4.85
2022-12-15T09:30:11.736Z,6.65
2022-12-15T09:32:59.490Z,5.72
2022-12-15T09:35:51.880Z,3.10
2022-12-15T09:38:43.357Z,6.85
2022-12-15T09:41:37.047Z,6.20
2022-12-15T09:44:30.400Z,6.30
2022-12-15T09:47:37.457Z,4.10
2022-12-15T09:50:32.802Z,3.67
2022-12-15T09:53:53.448Z,2.53
2022-12-15T09:59:56.024Z,2.20
2022-12-15T10:03:32.421Z,3.38
2022-12-15T10:06:57.697Z,11.80
2022-12-15T10:09:47.673Z,4.47
2022-12-15T10:15:56.833Z,8.60
2022-12-15T10:19:16.394Z,6.28
2022-12-15T10:22:31.061Z,5.55
2022-12-15T10:25:30.058Z,4.75
2022-12-15T10:28:45.472Z,3.20
2022-12-15T10:31:56.724Z,4.25
2022-12-15T10:34:44.590Z,3.05
2022-12-15T10:37:32.397Z,1.65
2022-12-15T10:40:50.746Z,1.48
2022-12-15T10:43:44.586Z,1.52
2022-12-15T10:46:34.987Z,1.00
2022-12-15T10:49:26.659Z,2.00
2022-12-15T10:52:32.764Z,1.52
2022-12-15T10:55:39.120Z,2.30
2022-12-15T10:58:29.794Z,0.38
2022-12-15T11:01:25.422Z,0.90
2022-12-15T11:05:05.779Z,1.45
2022-12-15T11:08:14.752Z,1.33
2022-12-15T11:11:26.063Z,1.70
2022-12-15T11:14:17.762Z,1.25
2022-12-15T11:17:07.644Z,2.85
2022-12-15T11:20:03.187Z,1.45
2022-12-15T11:23:02.102Z,1.90
2022-12-15T11:26:06.836Z,2.10
2022-12-15T11:29:10.304Z,2.42
2022-12-15T11:32:06.753Z,1.83
2022-12-15T11:34:55.551Z,2.35
2022-12-15T11:37:52.059Z,1.45
2022-12-15T11:40:43.971Z,1.30
2022-12-15T11:44:07.017Z,2.60
2022-12-15T11:47:04.829Z,2.45
2022-12-15T11:50:08.835Z,1.73
2022-12-15T11:53:35.861Z,1.88
2022-12-15T11:56:41.785Z,1.58
2022-12-15T11:59:32.228Z,2.15
2022-12-15T12:02:34.353Z,1.33
2022-12-15T12:05:38.444Z,2.55
2022-12-15T12:08:59.214Z,3.00
2022-12-15T12:12:05.310Z,15.68
2022-12-15T12:15:01.987Z,2.60
2022-12-15T12:17:56.227Z,10.40
2022-12-15T12:20:50.258Z,5.43
2022-12-15T12:24:10.134Z,2.47
2022-12-15T12:27:19.201Z,1.95
2022-12-15T12:30:15.463Z,2.45
2022-12-15T12:33:03.049Z,2.70
2022-12-15T12:36:00.671Z,4.25
2022-12-15T12:38:56.345Z,3.63
2022-12-15T12:41:58.586Z,3.42
2022-12-15T12:44:46.475Z,6.65
2022-12-15T12:47:38.879Z,3.70
2022-12-15T12:50:31.135Z,2.50
2022-12-15T12:53:33.454Z,3.97
2022-12-15T12:56:48.829Z,3.53
2022-12-15T12:59:41.715Z,3.50
2022-12-15T13:02:41.335Z,10.43
2022-12-15T13:05:33.828Z,3.83
2022-12-15T13:12:20.922Z,3.50
2022-12-15T13:15:18.923Z,3.80
2022-12-15T13:18:19.060Z,3.17
2022-12-15T13:21:36.184Z,4.22
2022-12-15T13:24:35.995Z,4.53
2022-12-15T13:27:36.946Z,5.28
2022-12-15T13:30:24.891Z,3.35
2022-12-15T13:33:19.453Z,4.43
2022-12-15T13:36:08.036Z,4.82
2022-12-15T13:38:56.519Z,5.47
2022-12-15T13:45:11.751Z,4.60
2022-12-15T13:48:01.163Z,4.32
2022-12-15T13:51:02.814Z,8.13
2022-12-15T13:54:12.210Z,6.65
2022-12-15T13:57:10.237Z,5.25
2022-12-15T14:00:20.532Z,5.15
2022-12-15T14:03:15.066Z,9.30
2022-12-15T14:06:05.755Z,6.22
2022-12-15T14:08:53.697Z,6.18
2022-12-15T14:11:53.077Z,4.60
2022-12-15T14:14:52.789Z,5.85
2022-12-15T14:17:49.161Z,4.95
2022-12-15T14:20:41.526Z,4.90
2022-12-15T14:23:40.791Z,6.97
2022-12-15T14:26:31.259Z,7.03
2022-12-15T14:29:19.171Z,15.45
2022-12-15T14:32:10.480Z,8.23
2022-12-15T14:34:58.231Z,6.60
2022-12-15T14:37:46.002Z,7.55
2022-12-15T14:40:38.119Z,8.70
2022-12-15T14:43:29.982Z,9.30
2022-12-15T14:49:10.961Z,9.77
2022-12-15T14:52:07.704Z,11.35
2022-12-15T14:55:00.984Z,14.52
2022-12-15T14:57:52.647Z,11.73
2022-12-15T15:00:54.102Z,14.05
2022-12-15T15:03:03.796Z,6.60
2022-12-15T15:03:05.497Z,4.68
2022-12-15T15:03:07.287Z,4.93
2022-12-15T15:03:59.776Z,14.23
2022-12-15T15:06:56.473Z,16.70
2022-12-15T15:09:46.399Z,16.38
2022-12-15T15:12:45.256Z,17.95
2022-12-15T15:15:34.692Z,25.00
2022-12-15T15:18:29.983Z,22.42
2022-12-15T15:21:24.137Z,21.75
2022-12-15T15:24:11.845Z,16.98
2022-12-15T15:27:38.614Z,18.52
2022-12-15T15:30:26.473Z,15.88
2022-12-15T15:33:14.592Z,18.08
2022-12-15T15:36:04.426Z,18.60
2022-12-15T15:38:52.454Z,25.65
2022-12-15T15:41:42.134Z,27.85
2022-12-15T15:44:29.986Z,26.70
2022-12-15T15:47:27.494Z,29.35
2022-12-15T15:50:18.091Z,98.40
2022-12-15T15:53:05.848Z,146.45
2022-12-15T15:55:56.185Z,73.72
2022-12-15T15:58:47.146Z,49.10
2022-12-15T16:01:34.896Z,35.00
2022-12-15T16:04:26.862Z,31.90
2022-12-15T16:07:25.043Z,27.15
2022-12-15T16:10:21.017Z,21.25
2022-12-15T16:13:13.675Z,17.95
2022-12-15T16:16:05.398Z,13.13
2022-12-15T16:18:57.269Z,14.32
2022-12-15T16:21:45.012Z,10.15
2022-12-15T16:24:35.080Z,12.23
2022-12-15T16:27:25.861Z,14.75
2022-12-15T16:30:27.073Z,16.58
2022-12-15T16:33:15.442Z,14.38
2022-12-15T16:36:14.238Z,15.48
2022-12-15T16:39:04.839Z,35.40
2022-12-15T16:41:54.297Z,38.78
2022-12-15T16:44:52.527Z,25.52
2022-12-15T16:47:40.983Z,25.25
2022-12-15T16:50:38.116Z,32.53
2022-12-15T16:53:29.337Z,23.52
2022-12-15T16:56:16.961Z,41.23
2022-12-15T16:59:32.073Z,30.60
2022-12-15T17:02:29.858Z,31.00
2022-12-15T17:05:18.595Z,26.20
2022-12-15T17:08:07.767Z,13.95
2022-12-15T17:10:55.669Z,9.27
2022-12-15T17:13:48.303Z,10.75
2022-12-15T17:16:36.588Z,13.13
2022-12-15T17:19:24.296Z,15.23
2022-12-15T17:22:16.130Z,8.70
2022-12-15T17:25:05.310Z,7.13
2022-12-15T17:27:56.462Z,8.32
2022-12-15T17:30:45.581Z,10.63
2022-12-15T17:33:36.247Z,11.43
2022-12-15T17:36:27.706Z,12.05
2022-12-15T17:39:18.407Z,22.37
2022-12-15T17:42:32.760Z,27.98
2022-12-15T17:45:24.693Z,24.17
2022-12-15T17:48:13.978Z,22.40
2022-12-15T17:51:01.973Z,20.92
2022-12-15T17:53:49.793Z,16.42
2022-12-15T17:56:39.895Z,16.70
2022-12-15T17:59:27.615Z,22.10
2022-12-15T18:02:15.802Z,29.70
2022-12-15T18:05:03.677Z,19.77
2022-12-15T18:07:56.228Z,18.05
2022-12-15T18:10:45.281Z,16.83
2022-12-15T18:13:36.118Z,17.38
2022-12-15T18:16:24.051Z,19.02
2022-12-15T18:19:12.942Z,25.15
2022-12-15T18:22:01.462Z,21.23
2022-12-15T18:24:51.401Z,19.23
2022-12-15T18:27:39.109Z,19.13
2022-12-15T18:30:27.484Z,15.27
2022-12-15T18:33:15.369Z,21.30
2022-12-15T18:36:03.135Z,18.10
2022-12-15T18:38:51.636Z,11.20
2022-12-15T18:41:39.430Z,13.23
2022-12-15T18:44:31.488Z,14.38
2022-12-15T18:47:22.426Z,13.27
2022-12-15T18:50:14.995Z,12.93
2022-12-15T18:53:04.355Z,13.25
2022-12-15T18:55:52.079Z,14.93
2022-12-15T18:58:40.306Z,14.00
2022-12-15T19:01:28.113Z,11.60
2022-12-15T19:04:16.240Z,13.88
2022-12-15T19:07:06.777Z,17.33
2022-12-15T19:09:55.141Z,19.88
2022-12-15T19:12:42.858Z,13.70
2022-12-15T19:15:30.814Z,18.02
2022-12-15T19:18:39.193Z,14.65
2022-12-15T19:21:50.347Z,18.83
2022-12-15T19:24:56.373Z,14.65
2022-12-15T19:27:48.436Z,13.52
2022-12-15T19:30:41.994Z,10.55
2022-12-15T19:33:30.563Z,14.50
2022-12-15T19:36:24.461Z,15.93
2022-12-15T19:39:23.366Z,13.48
2022-12-15T19:42:31.995Z,13.98
2022-12-15T19:45:22.726Z,14.25
2022-12-15T19:48:12.261Z,12.68
2022-12-15T19:50:59.936Z,11.93
2022-12-15T19:53:49.008Z,18.00
2022-12-15T19:56:36.802Z,12.77
2022-12-15T19:59:27.027Z,13.60
2022-12-15T20:02:19.470Z,17.52
2022-12-15T20:05:07.865Z,15.05
2022-12-15T20:07:57.056Z,15.35
2022-12-15T20:10:44.691Z,16.33
2022-12-15T20:13:32.723Z,12.13
2022-12-15T20:16:21.667Z,13.40
2022-12-15T20:19:09.718Z,13.90
2022-12-15T20:21:57.884Z,13.05
2022-12-15T20:24:46.691Z,16.00
2022-12-15T20:27:34.431Z,14.00
2022-12-15T20:30:24.515Z,18.55
2022-12-15T20:33:13.218Z,14.73
2022-12-15T20:36:00.906Z,12.88
2022-12-15T20:38:48.871Z,17.27
2022-12-15T20:41:36.496Z,11.10
2022-12-15T20:44:24.822Z,13.75
2022-12-15T20:47:24.054Z,14.77
2022-12-15T20:50:28.771Z,12.32
2022-12-15T20:53:22.081Z,11.65
2022-12-15T20:56:09.814Z,13.98
2022-12-15T20:58:58.661Z,16.25
2022-12-15T21:01:47.197Z,12.63
2022-12-15T21:04:35.373Z,13.68
2022-12-15T21:07:23.211Z,15.73
2022-12-15T21:10:13.096Z,16.40
2022-12-15T21:13:00.921Z,14.40
2022-12-15T21:15:49.057Z,17.83
2022-12-15T21:19:18.700Z,17.85
2022-12-15T21:21:49.560Z,15.15
2022-12-15T21:24:39.861Z,13.82
2022-12-15T21:27:27.587Z,12.82
2022-12-15T21:30:17.702Z,16.88
2022-12-15T21:33:14.932Z,16.23
2022-12-15T21:36:03.126Z,15.60
2022-12-15T21:38:52.740Z,15.55
2022-12-15T21:41:43.409Z,14.68
2022-12-15T21:44:31.066Z,14.85
2022-12-15T21:47:52.144Z,14.88
2022-12-15T21:50:43.449Z,17.52
2022-12-15T21:53:31.156Z,14.25
2022-12-15T21:56:21.323Z,15.13
2022-12-15T21:59:14.717Z,16.85
2022-12-15T22:02:15.882Z,14.13
2022-12-15T22:05:03.795Z,18.05
2022-12-15T22:07:52.423Z,13.75
2022-12-15T22:10:40.207Z,13.43
2022-12-15T22:13:27.909Z,13.32
2022-12-15T22:16:16.082Z,12.93
2022-12-15T22:19:09.094Z,12.02
2022-12-15T22:21:56.821Z,11.52
2022-12-15T22:24:44.903Z,11.20
2022-12-15T22:27:34.325Z,12.18
2022-12-15T22:30:26.783Z,12.52
2022-12-15T22:33:21.923Z,14.10
2022-12-15T22:36:09.765Z,14.85
2022-12-15T22:38:57.767Z,15.30
2022-12-15T22:41:50.193Z,15.95
2022-12-15T22:44:38.256Z,14.53
2022-12-15T22:47:25.912Z,13.38
2022-12-15T22:50:20.351Z,12.35
2022-12-15T22:53:18.433Z,11.10
2022-12-15T22:56:30.828Z,10.57
2022-12-15T22:59:27.255Z,11.25
2022-12-15T23:02:14.913Z,8.93
2022-12-15T23:05:02.672Z,9.52
2022-12-15T23:07:50.785Z,8.75
2022-12-15T23:10:57.953Z,9.57
2022-12-15T23:13:45.774Z,9.00
2022-12-15T23:16:34.485Z,11.15
2022-12-15T23:19:25.226Z,9.25
2022-12-15T23:22:14.340Z,9.05
2022-12-15T23:25:02.089Z,9.38
2022-12-15T23:27:49.832Z,7.93
2022-12-15T23:30:38.399Z,8.18
2022-12-15T23:33:28.307Z,8.85
2022-12-15T23:36:16.207Z,12.05
2022-12-15T23:39:04.076Z,11.32
2022-12-15T23:41:51.792Z,10.65
2022-12-15T23:44:39.779Z,10.73
2022-12-15T23:47:27.514Z,8.65
2022-12-15T23:50:15.383Z,10.02
2022-12-15T23:53:04.553Z,9.90
2022-12-15T23:55:52.175Z,8.75
2022-12-15T23:58:42.652Z,9.77
